sensor_id;sensor_type;location;lat;lon;timestamp;P1;durP1;ratioP1;P2;durP2;ratioP2
6614;SDS011;3343;42.896;23.912;2023-05-09T00:01:47;13.43;;;7.00;;
6614;SDS011;3343;42.896;23.912;2023-05-09T00:04:14;11.10;;;6.73;;
6614;SDS011;3343;42.896;23.912;2023-05-09T00:06:42;11.70;;;7.70;;
6614;SDS011;3343;42.896;23.912;2023-05-09T00:09:10;10.27;;;7.00;;
6614;SDS011;3343;42.896;23.912;2023-05-09T00:11:37;12.10;;;7.07;;
6614;SDS011;3343;42.896;23.912;2023-05-09T00:14:04;13.43;;;8.47;;
6614;SDS011;3343;42.896;23.912;2023-05-09T00:16:30;10.57;;;6.93;;
6614;SDS011;3343;42.896;23.912;2023-05-09T00:18:58;15.13;;;7.37;;
6614;SDS011;3343;42.896;23.912;2023-05-09T00:21:24;11.93;;;6.93;;
6614;SDS011;3343;42.896;23.912;2023-05-09T00:23:54;12.80;;;7.37;;
6614;SDS011;3343;42.896;23.912;2023-05-09T00:26:21;14.67;;;7.33;;
6614;SDS011;3343;42.896;23.912;2023-05-09T00:28:48;12.90;;;7.20;;
6614;SDS011;3343;42.896;23.912;2023-05-09T00:31:15;13.10;;;7.07;;
6614;SDS011;3343;42.896;23.912;2023-05-09T00:33:42;11.90;;;6.47;;
6614;SDS011;3343;42.896;23.912;2023-05-09T00:36:09;13.90;;;6.63;;
6614;SDS011;3343;42.896;23.912;2023-05-09T00:38:35;11.53;;;6.87;;
6614;SDS011;3343;42.896;23.912;2023-05-09T00:41:04;10.83;;;6.83;;
6614;SDS011;3343;42.896;23.912;2023-05-09T00:43:30;11.87;;;6.43;;
6614;SDS011;3343;42.896;23.912;2023-05-09T00:45:57;12.80;;;7.27;;
6614;SDS011;3343;42.896;23.912;2023-05-09T00:48:24;13.50;;;6.67;;
6614;SDS011;3343;42.896;23.912;2023-05-09T00:50:51;11.97;;;6.73;;
6614;SDS011;3343;42.896;23.912;2023-05-09T00:53:18;9.50;;;6.37;;
6614;SDS011;3343;42.896;23.912;2023-05-09T00:55:45;10.53;;;7.27;;
6614;SDS011;3343;42.896;23.912;2023-05-09T00:58:13;12.90;;;7.33;;
6614;SDS011;3343;42.896;23.912;2023-05-09T01:00:41;14.27;;;7.20;;
6614;SDS011;3343;42.896;23.912;2023-05-09T01:03:08;11.77;;;6.07;;
6614;SDS011;3343;42.896;23.912;2023-05-09T01:05:37;13.10;;;6.83;;
6614;SDS011;3343;42.896;23.912;2023-05-09T01:08:09;12.03;;;6.90;;
6614;SDS011;3343;42.896;23.912;2023-05-09T01:10:43;11.30;;;6.80;;
6614;SDS011;3343;42.896;23.912;2023-05-09T01:13:19;10.57;;;5.83;;
6614;SDS011;3343;42.896;23.912;2023-05-09T01:15:53;11.63;;;7.00;;
6614;SDS011;3343;42.896;23.912;2023-05-09T01:18:24;10.00;;;6.43;;
6614;SDS011;3343;42.896;23.912;2023-05-09T01:20:59;9.13;;;5.90;;
6614;SDS011;3343;42.896;23.912;2023-05-09T01:23:38;9.53;;;6.07;;
6614;SDS011;3343;42.896;23.912;2023-05-09T01:26:20;9.37;;;5.87;;
6614;SDS011;3343;42.896;23.912;2023-05-09T01:28:59;11.37;;;5.60;;
6614;SDS011;3343;42.896;23.912;2023-05-09T01:31:58;12.33;;;6.17;;
6614;SDS011;3343;42.896;23.912;2023-05-09T01:34:28;9.90;;;6.13;;
6614;SDS011;3343;42.896;23.912;2023-05-09T01:36:58;11.33;;;6.63;;
6614;SDS011;3343;42.896;23.912;2023-05-09T01:39:26;13.47;;;7.13;;
6614;SDS011;3343;42.896;23.912;2023-05-09T01:41:55;13.00;;;6.37;;
6614;SDS011;3343;42.896;23.912;2023-05-09T01:44:27;13.50;;;7.47;;
6614;SDS011;3343;42.896;23.912;2023-05-09T01:46:57;11.90;;;7.07;;
6614;SDS011;3343;42.896;23.912;2023-05-09T01:49:26;11.83;;;7.03;;
6614;SDS011;3343;42.896;23.912;2023-05-09T01:51:55;10.97;;;7.13;;
6614;SDS011;3343;42.896;23.912;2023-05-09T01:54:22;10.73;;;6.23;;
6614;SDS011;3343;42.896;23.912;2023-05-09T01:56:50;11.40;;;6.07;;
6614;SDS011;3343;42.896;23.912;2023-05-09T01:59:20;7.97;;;5.73;;
6614;SDS011;3343;42.896;23.912;2023-05-09T02:01:50;8.90;;;5.43;;
6614;SDS011;3343;42.896;23.912;2023-05-09T02:04:19;8.93;;;5.30;;
6614;SDS011;3343;42.896;23.912;2023-05-09T02:06:47;10.17;;;5.67;;
6614;SDS011;3343;42.896;23.912;2023-05-09T02:09:16;8.73;;;5.07;;
6614;SDS011;3343;42.896;23.912;2023-05-09T02:11:44;7.47;;;5.00;;
6614;SDS011;3343;42.896;23.912;2023-05-09T02:14:11;8.50;;;5.20;;
6614;SDS011;3343;42.896;23.912;2023-05-09T02:16:38;9.17;;;5.63;;
6614;SDS011;3343;42.896;23.912;2023-05-09T02:19:07;9.23;;;4.90;;
6614;SDS011;3343;42.896;23.912;2023-05-09T02:21:33;8.70;;;5.07;;
6614;SDS011;3343;42.896;23.912;2023-05-09T02:24:00;9.77;;;5.70;;
6614;SDS011;3343;42.896;23.912;2023-05-09T02:26:28;12.70;;;5.83;;
6614;SDS011;3343;42.896;23.912;2023-05-09T02:28:55;10.27;;;5.33;;
6614;SDS011;3343;42.896;23.912;2023-05-09T02:31:24;5.40;;;4.03;;
6614;SDS011;3343;42.896;23.912;2023-05-09T02:33:53;6.40;;;4.17;;
6614;SDS011;3343;42.896;23.912;2023-05-09T02:36:22;4.57;;;3.13;;
6614;SDS011;3343;42.896;23.912;2023-05-09T02:38:50;5.67;;;3.60;;
6614;SDS011;3343;42.896;23.912;2023-05-09T02:41:17;5.13;;;2.90;;
6614;SDS011;3343;42.896;23.912;2023-05-09T02:43:44;3.87;;;2.67;;
6614;SDS011;3343;42.896;23.912;2023-05-09T02:46:11;3.43;;;2.47;;
6614;SDS011;3343;42.896;23.912;2023-05-09T02:48:38;2.67;;;2.13;;
6614;SDS011;3343;42.896;23.912;2023-05-09T02:51:05;2.53;;;2.03;;
6614;SDS011;3343;42.896;23.912;2023-05-09T02:53:33;3.73;;;2.00;;
6614;SDS011;3343;42.896;23.912;2023-05-09T02:56:00;3.37;;;2.23;;
6614;SDS011;3343;42.896;23.912;2023-05-09T02:58:28;2.13;;;1.57;;
6614;SDS011;3343;42.896;23.912;2023-05-09T03:00:54;2.37;;;1.73;;
6614;SDS011;3343;42.896;23.912;2023-05-09T03:03:21;2.73;;;2.10;;
6614;SDS011;3343;42.896;23.912;2023-05-09T03:05:49;2.00;;;1.70;;
6614;SDS011;3343;42.896;23.912;2023-05-09T03:08:16;2.53;;;1.87;;
6614;SDS011;3343;42.896;23.912;2023-05-09T03:10:44;1.67;;;1.50;;
6614;SDS011;3343;42.896;23.912;2023-05-09T03:13:11;2.17;;;1.53;;
6614;SDS011;3343;42.896;23.912;2023-05-09T03:15:38;2.03;;;1.63;;
6614;SDS011;3343;42.896;23.912;2023-05-09T03:18:05;2.63;;;2.17;;
6614;SDS011;3343;42.896;23.912;2023-05-09T03:20:33;2.47;;;1.47;;
6614;SDS011;3343;42.896;23.912;2023-05-09T03:23:00;3.07;;;1.57;;
6614;SDS011;3343;42.896;23.912;2023-05-09T03:25:26;2.23;;;2.00;;
6614;SDS011;3343;42.896;23.912;2023-05-09T03:27:55;2.30;;;1.93;;
6614;SDS011;3343;42.896;23.912;2023-05-09T03:30:22;2.33;;;2.00;;
6614;SDS011;3343;42.896;23.912;2023-05-09T03:32:49;4.20;;;2.23;;
6614;SDS011;3343;42.896;23.912;2023-05-09T03:35:15;2.70;;;1.97;;
6614;SDS011;3343;42.896;23.912;2023-05-09T03:37:42;2.00;;;1.77;;
6614;SDS011;3343;42.896;23.912;2023-05-09T03:40:09;3.23;;;2.20;;
6614;SDS011;3343;42.896;23.912;2023-05-09T03:42:37;2.20;;;1.67;;
6614;SDS011;3343;42.896;23.912;2023-05-09T03:45:05;2.13;;;1.77;;
6614;SDS011;3343;42.896;23.912;2023-05-09T03:47:33;2.77;;;1.70;;
6614;SDS011;3343;42.896;23.912;2023-05-09T03:50:00;2.13;;;1.87;;
6614;SDS011;3343;42.896;23.912;2023-05-09T03:52:26;3.60;;;1.73;;
6614;SDS011;3343;42.896;23.912;2023-05-09T03:54:53;2.70;;;1.80;;
6614;SDS011;3343;42.896;23.912;2023-05-09T03:57:20;2.87;;;1.87;;
6614;SDS011;3343;42.896;23.912;2023-05-09T03:59:47;2.60;;;1.90;;
6614;SDS011;3343;42.896;23.912;2023-05-09T04:02:15;4.37;;;1.93;;
6614;SDS011;3343;42.896;23.912;2023-05-09T04:04:42;4.13;;;2.10;;
6614;SDS011;3343;42.896;23.912;2023-05-09T04:07:10;2.33;;;1.57;;
6614;SDS011;3343;42.896;23.912;2023-05-09T04:09:37;3.30;;;2.60;;
6614;SDS011;3343;42.896;23.912;2023-05-09T04:12:06;3.37;;;2.50;;
6614;SDS011;3343;42.896;23.912;2023-05-09T04:14:33;2.43;;;1.90;;
6614;SDS011;3343;42.896;23.912;2023-05-09T04:17:00;4.40;;;2.63;;
6614;SDS011;3343;42.896;23.912;2023-05-09T04:19:28;3.30;;;2.20;;
6614;SDS011;3343;42.896;23.912;2023-05-09T04:21:55;3.73;;;2.27;;
6614;SDS011;3343;42.896;23.912;2023-05-09T04:24:22;4.00;;;1.93;;
6614;SDS011;3343;42.896;23.912;2023-05-09T04:26:49;3.30;;;1.90;;
6614;SDS011;3343;42.896;23.912;2023-05-09T04:29:16;3.93;;;2.33;;
6614;SDS011;3343;42.896;23.912;2023-05-09T04:31:43;3.47;;;2.20;;
6614;SDS011;3343;42.896;23.912;2023-05-09T04:34:10;2.40;;;2.17;;
6614;SDS011;3343;42.896;23.912;2023-05-09T04:36:38;2.57;;;2.23;;
6614;SDS011;3343;42.896;23.912;2023-05-09T04:39:05;3.03;;;2.00;;
6614;SDS011;3343;42.896;23.912;2023-05-09T04:41:32;2.80;;;1.90;;
6614;SDS011;3343;42.896;23.912;2023-05-09T04:43:59;2.97;;;1.97;;
6614;SDS011;3343;42.896;23.912;2023-05-09T04:46:26;2.10;;;1.83;;
6614;SDS011;3343;42.896;23.912;2023-05-09T04:48:53;2.03;;;1.50;;
6614;SDS011;3343;42.896;23.912;2023-05-09T04:51:20;2.30;;;1.70;;
6614;SDS011;3343;42.896;23.912;2023-05-09T04:53:48;2.13;;;1.70;;
6614;SDS011;3343;42.896;23.912;2023-05-09T04:56:15;1.97;;;1.30;;
6614;SDS011;3343;42.896;23.912;2023-05-09T04:58:42;3.33;;;1.27;;
6614;SDS011;3343;42.896;23.912;2023-05-09T05:01:08;1.83;;;1.50;;
6614;SDS011;3343;42.896;23.912;2023-05-09T05:03:35;1.67;;;1.53;;
6614;SDS011;3343;42.896;23.912;2023-05-09T05:06:02;1.43;;;1.27;;
6614;SDS011;3343;42.896;23.912;2023-05-09T05:08:29;1.77;;;1.40;;
6614;SDS011;3343;42.896;23.912;2023-05-09T05:10:57;1.33;;;1.23;;
6614;SDS011;3343;42.896;23.912;2023-05-09T05:13:24;2.10;;;1.80;;
6614;SDS011;3343;42.896;23.912;2023-05-09T05:15:51;2.37;;;1.57;;
6614;SDS011;3343;42.896;23.912;2023-05-09T05:18:18;1.97;;;1.70;;
6614;SDS011;3343;42.896;23.912;2023-05-09T05:20:45;2.10;;;1.37;;
6614;SDS011;3343;42.896;23.912;2023-05-09T05:23:12;1.40;;;1.30;;
6614;SDS011;3343;42.896;23.912;2023-05-09T05:25:38;1.87;;;1.30;;
6614;SDS011;3343;42.896;23.912;2023-05-09T05:28:07;2.60;;;1.53;;
6614;SDS011;3343;42.896;23.912;2023-05-09T05:30:33;1.57;;;1.37;;
6614;SDS011;3343;42.896;23.912;2023-05-09T05:33:00;2.60;;;1.93;;
6614;SDS011;3343;42.896;23.912;2023-05-09T05:35:27;2.83;;;1.83;;
6614;SDS011;3343;42.896;23.912;2023-05-09T05:37:54;2.07;;;1.60;;
6614;SDS011;3343;42.896;23.912;2023-05-09T05:40:21;2.10;;;1.90;;
6614;SDS011;3343;42.896;23.912;2023-05-09T05:42:47;1.60;;;1.50;;
6614;SDS011;3343;42.896;23.912;2023-05-09T05:45:16;1.90;;;1.47;;
6614;SDS011;3343;42.896;23.912;2023-05-09T05:47:42;1.23;;;1.13;;
6614;SDS011;3343;42.896;23.912;2023-05-09T05:50:09;1.50;;;1.40;;
6614;SDS011;3343;42.896;23.912;2023-05-09T05:52:37;1.40;;;1.30;;
6614;SDS011;3343;42.896;23.912;2023-05-09T05:55:04;1.43;;;1.23;;
6614;SDS011;3343;42.896;23.912;2023-05-09T05:57:31;1.53;;;1.30;;
6614;SDS011;3343;42.896;23.912;2023-05-09T05:59:58;2.90;;;1.20;;
6614;SDS011;3343;42.896;23.912;2023-05-09T06:02:27;1.20;;;1.10;;
6614;SDS011;3343;42.896;23.912;2023-05-09T06:04:53;1.20;;;1.10;;
6614;SDS011;3343;42.896;23.912;2023-05-09T06:07:20;0.80;;;0.80;;
6614;SDS011;3343;42.896;23.912;2023-05-09T06:09:47;0.60;;;0.60;;
6614;SDS011;3343;42.896;23.912;2023-05-09T06:12:14;1.43;;;1.30;;
6614;SDS011;3343;42.896;23.912;2023-05-09T06:14:41;0.60;;;0.60;;
6614;SDS011;3343;42.896;23.912;2023-05-09T06:17:08;1.00;;;0.90;;
6614;SDS011;3343;42.896;23.912;2023-05-09T06:19:36;1.10;;;1.00;;
6614;SDS011;3343;42.896;23.912;2023-05-09T06:22:03;0.60;;;0.60;;
6614;SDS011;3343;42.896;23.912;2023-05-09T06:24:30;0.73;;;0.60;;
6614;SDS011;3343;42.896;23.912;2023-05-09T06:26:56;0.70;;;0.70;;
6614;SDS011;3343;42.896;23.912;2023-05-09T06:29:23;1.17;;;0.80;;
6614;SDS011;3343;42.896;23.912;2023-05-09T06:31:50;0.70;;;0.70;;
6614;SDS011;3343;42.896;23.912;2023-05-09T06:34:17;0.83;;;0.83;;
6614;SDS011;3343;42.896;23.912;2023-05-09T06:36:46;0.80;;;0.80;;
6614;SDS011;3343;42.896;23.912;2023-05-09T06:39:13;0.60;;;0.60;;
6614;SDS011;3343;42.896;23.912;2023-05-09T06:41:40;0.67;;;0.67;;
6614;SDS011;3343;42.896;23.912;2023-05-09T06:44:07;0.70;;;0.70;;
6614;SDS011;3343;42.896;23.912;2023-05-09T06:46:33;0.90;;;0.70;;
6614;SDS011;3343;42.896;23.912;2023-05-09T06:49:00;0.80;;;0.80;;
6614;SDS011;3343;42.896;23.912;2023-05-09T06:51:27;0.80;;;0.80;;
6614;SDS011;3343;42.896;23.912;2023-05-09T06:53:56;1.73;;;0.80;;
6614;SDS011;3343;42.896;23.912;2023-05-09T06:56:23;0.50;;;0.50;;
6614;SDS011;3343;42.896;23.912;2023-05-09T06:58:51;0.73;;;0.73;;
6614;SDS011;3343;42.896;23.912;2023-05-09T07:01:18;0.60;;;0.60;;
6614;SDS011;3343;42.896;23.912;2023-05-09T07:03:45;0.60;;;0.60;;
6614;SDS011;3343;42.896;23.912;2023-05-09T07:06:12;0.73;;;0.73;;
6614;SDS011;3343;42.896;23.912;2023-05-09T07:08:39;1.00;;;0.90;;
6614;SDS011;3343;42.896;23.912;2023-05-09T07:11:07;0.70;;;0.70;;
6614;SDS011;3343;42.896;23.912;2023-05-09T07:13:34;0.70;;;0.70;;
6614;SDS011;3343;42.896;23.912;2023-05-09T07:16:01;0.70;;;0.70;;
6614;SDS011;3343;42.896;23.912;2023-05-09T07:18:28;0.60;;;0.60;;
6614;SDS011;3343;42.896;23.912;2023-05-09T07:20:55;1.10;;;0.80;;
6614;SDS011;3343;42.896;23.912;2023-05-09T07:23:22;1.27;;;1.17;;
6614;SDS011;3343;42.896;23.912;2023-05-09T07:25:54;1.43;;;1.00;;
6614;SDS011;3343;42.896;23.912;2023-05-09T07:28:23;1.10;;;1.00;;
6614;SDS011;3343;42.896;23.912;2023-05-09T07:30:50;1.23;;;0.90;;
6614;SDS011;3343;42.896;23.912;2023-05-09T07:33:17;1.20;;;1.10;;
6614;SDS011;3343;42.896;23.912;2023-05-09T07:35:44;1.53;;;0.87;;
6614;SDS011;3343;42.896;23.912;2023-05-09T07:38:11;0.87;;;0.87;;
6614;SDS011;3343;42.896;23.912;2023-05-09T07:40:38;0.70;;;0.70;;
6614;SDS011;3343;42.896;23.912;2023-05-09T07:43:06;0.77;;;0.77;;
6614;SDS011;3343;42.896;23.912;2023-05-09T07:45:34;0.60;;;0.60;;
6614;SDS011;3343;42.896;23.912;2023-05-09T07:48:00;3.93;;;0.80;;
6614;SDS011;3343;42.896;23.912;2023-05-09T07:50:27;0.90;;;0.90;;
6614;SDS011;3343;42.896;23.912;2023-05-09T07:52:54;0.90;;;0.90;;
6614;SDS011;3343;42.896;23.912;2023-05-09T07:55:21;0.87;;;0.80;;
6614;SDS011;3343;42.896;23.912;2023-05-09T07:57:47;0.53;;;0.53;;
6614;SDS011;3343;42.896;23.912;2023-05-09T08:00:14;0.70;;;0.70;;
6614;SDS011;3343;42.896;23.912;2023-05-09T08:02:43;0.70;;;0.70;;
6614;SDS011;3343;42.896;23.912;2023-05-09T08:05:10;0.60;;;0.60;;
6614;SDS011;3343;42.896;23.912;2023-05-09T08:07:37;0.73;;;0.70;;
6614;SDS011;3343;42.896;23.912;2023-05-09T08:10:04;0.60;;;0.60;;
6614;SDS011;3343;42.896;23.912;2023-05-09T08:12:32;0.70;;;0.70;;
6614;SDS011;3343;42.896;23.912;2023-05-09T08:14:59;0.90;;;0.80;;
6614;SDS011;3343;42.896;23.912;2023-05-09T08:17:26;0.80;;;0.80;;
6614;SDS011;3343;42.896;23.912;2023-05-09T08:19:54;0.53;;;0.53;;
6614;SDS011;3343;42.896;23.912;2023-05-09T08:22:21;0.63;;;0.63;;
6614;SDS011;3343;42.896;23.912;2023-05-09T08:24:49;0.70;;;0.70;;
6614;SDS011;3343;42.896;23.912;2023-05-09T08:27:15;0.67;;;0.67;;
6614;SDS011;3343;42.896;23.912;2023-05-09T08:29:42;0.60;;;0.60;;
6614;SDS011;3343;42.896;23.912;2023-05-09T08:32:09;0.73;;;0.73;;
6614;SDS011;3343;42.896;23.912;2023-05-09T08:34:36;0.60;;;0.60;;
6614;SDS011;3343;42.896;23.912;2023-05-09T08:37:04;0.60;;;0.60;;
6614;SDS011;3343;42.896;23.912;2023-05-09T08:39:31;0.50;;;0.50;;
6614;SDS011;3343;42.896;23.912;2023-05-09T08:41:59;0.60;;;0.60;;
6614;SDS011;3343;42.896;23.912;2023-05-09T08:44:28;0.40;;;0.40;;
6614;SDS011;3343;42.896;23.912;2023-05-09T08:46:57;0.40;;;0.40;;
6614;SDS011;3343;42.896;23.912;2023-05-09T08:49:25;0.60;;;0.60;;
6614;SDS011;3343;42.896;23.912;2023-05-09T08:51:53;0.77;;;0.60;;
6614;SDS011;3343;42.896;23.912;2023-05-09T08:54:22;0.70;;;0.70;;
6614;SDS011;3343;42.896;23.912;2023-05-09T08:56:50;0.80;;;0.80;;
6614;SDS011;3343;42.896;23.912;2023-05-09T08:59:17;2.43;;;0.70;;
6614;SDS011;3343;42.896;23.912;2023-05-09T09:01:44;0.50;;;0.50;;
6614;SDS011;3343;42.896;23.912;2023-05-09T09:04:11;0.63;;;0.63;;
6614;SDS011;3343;42.896;23.912;2023-05-09T09:06:38;0.77;;;0.77;;
6614;SDS011;3343;42.896;23.912;2023-05-09T09:09:06;0.93;;;0.80;;
6614;SDS011;3343;42.896;23.912;2023-05-09T09:11:35;0.73;;;0.60;;
6614;SDS011;3343;42.896;23.912;2023-05-09T09:14:05;1.10;;;0.70;;
6614;SDS011;3343;42.896;23.912;2023-05-09T09:16:37;0.80;;;0.80;;
6614;SDS011;3343;42.896;23.912;2023-05-09T09:19:05;0.80;;;0.80;;
6614;SDS011;3343;42.896;23.912;2023-05-09T09:21:36;0.80;;;0.80;;
6614;SDS011;3343;42.896;23.912;2023-05-09T09:24:08;0.70;;;0.70;;
6614;SDS011;3343;42.896;23.912;2023-05-09T09:26:42;0.70;;;0.70;;
6614;SDS011;3343;42.896;23.912;2023-05-09T09:29:11;0.80;;;0.80;;
6614;SDS011;3343;42.896;23.912;2023-05-09T09:31:39;0.70;;;0.70;;
6614;SDS011;3343;42.896;23.912;2023-05-09T09:34:10;0.60;;;0.60;;
6614;SDS011;3343;42.896;23.912;2023-05-09T09:36:38;0.60;;;0.60;;
6614;SDS011;3343;42.896;23.912;2023-05-09T09:39:05;0.80;;;0.80;;
6614;SDS011;3343;42.896;23.912;2023-05-09T09:41:33;0.70;;;0.70;;
6614;SDS011;3343;42.896;23.912;2023-05-09T09:44:09;0.80;;;0.80;;
6614;SDS011;3343;42.896;23.912;2023-05-09T09:46:41;0.53;;;0.53;;
6614;SDS011;3343;42.896;23.912;2023-05-09T09:49:09;0.73;;;0.73;;
6614;SDS011;3343;42.896;23.912;2023-05-09T09:51:36;0.70;;;0.70;;
6614;SDS011;3343;42.896;23.912;2023-05-09T09:54:05;0.73;;;0.73;;
6614;SDS011;3343;42.896;23.912;2023-05-09T09:56:42;0.70;;;0.70;;
6614;SDS011;3343;42.896;23.912;2023-05-09T09:59:12;0.70;;;0.70;;
6614;SDS011;3343;42.896;23.912;2023-05-09T10:01:55;0.90;;;0.90;;
6614;SDS011;3343;42.896;23.912;2023-05-09T10:04:26;0.60;;;0.60;;
6614;SDS011;3343;42.896;23.912;2023-05-09T10:06:55;0.80;;;0.80;;
6614;SDS011;3343;42.896;23.912;2023-05-09T10:09:23;0.60;;;0.60;;
6614;SDS011;3343;42.896;23.912;2023-05-09T10:11:51;1.20;;;0.90;;
6614;SDS011;3343;42.896;23.912;2023-05-09T10:14:21;0.60;;;0.60;;
6614;SDS011;3343;42.896;23.912;2023-05-09T10:16:50;0.77;;;0.70;;
6614;SDS011;3343;42.896;23.912;2023-05-09T10:19:17;0.60;;;0.60;;
6614;SDS011;3343;42.896;23.912;2023-05-09T10:21:47;0.60;;;0.60;;
6614;SDS011;3343;42.896;23.912;2023-05-09T10:24:17;0.70;;;0.70;;
6614;SDS011;3343;42.896;23.912;2023-05-09T10:26:48;2.53;;;0.70;;
6614;SDS011;3343;42.896;23.912;2023-05-09T10:29:17;1.73;;;1.20;;
6614;SDS011;3343;42.896;23.912;2023-05-09T10:31:49;2.63;;;1.10;;
6614;SDS011;3343;42.896;23.912;2023-05-09T10:34:23;1.33;;;1.13;;
6614;SDS011;3343;42.896;23.912;2023-05-09T10:36:52;1.10;;;1.00;;
6614;SDS011;3343;42.896;23.912;2023-05-09T10:39:19;1.10;;;1.00;;
6614;SDS011;3343;42.896;23.912;2023-05-09T10:41:47;0.90;;;0.90;;
6614;SDS011;3343;42.896;23.912;2023-05-09T10:44:15;1.30;;;1.20;;
6614;SDS011;3343;42.896;23.912;2023-05-09T10:46:44;1.27;;;1.17;;
6614;SDS011;3343;42.896;23.912;2023-05-09T10:49:12;1.40;;;1.10;;
6614;SDS011;3343;42.896;23.912;2023-05-09T10:51:39;1.17;;;1.07;;
6614;SDS011;3343;42.896;23.912;2023-05-09T10:54:25;1.10;;;0.90;;
6614;SDS011;3343;42.896;23.912;2023-05-09T10:56:53;1.20;;;1.10;;
6614;SDS011;3343;42.896;23.912;2023-05-09T11:02:11;2.30;;;1.53;;
6614;SDS011;3343;42.896;23.912;2023-05-09T11:04:39;2.00;;;1.30;;
6614;SDS011;3343;42.896;23.912;2023-05-09T11:07:21;1.13;;;1.03;;
6614;SDS011;3343;42.896;23.912;2023-05-09T11:09:50;1.20;;;1.10;;
6614;SDS011;3343;42.896;23.912;2023-05-09T11:12:18;2.33;;;1.30;;
6614;SDS011;3343;42.896;23.912;2023-05-09T11:14:47;1.33;;;1.10;;
6614;SDS011;3343;42.896;23.912;2023-05-09T11:17:28;8.80;;;1.20;;
6614;SDS011;3343;42.896;23.912;2023-05-09T11:19:57;1.17;;;1.03;;
6614;SDS011;3343;42.896;23.912;2023-05-09T11:22:26;1.30;;;1.20;;
6614;SDS011;3343;42.896;23.912;2023-05-09T11:25:04;1.13;;;1.03;;
6614;SDS011;3343;42.896;23.912;2023-05-09T11:27:37;1.80;;;1.13;;
6614;SDS011;3343;42.896;23.912;2023-05-09T11:30:06;1.30;;;1.20;;
6614;SDS011;3343;42.896;23.912;2023-05-09T11:32:41;1.80;;;1.57;;
6614;SDS011;3343;42.896;23.912;2023-05-09T11:35:11;1.70;;;1.40;;
6614;SDS011;3343;42.896;23.912;2023-05-09T11:37:48;1.20;;;1.10;;
6614;SDS011;3343;42.896;23.912;2023-05-09T11:40:17;1.57;;;1.00;;
6614;SDS011;3343;42.896;23.912;2023-05-09T11:42:45;1.30;;;1.20;;
6614;SDS011;3343;42.896;23.912;2023-05-09T11:45:14;1.00;;;1.00;;
6614;SDS011;3343;42.896;23.912;2023-05-09T11:47:43;1.27;;;1.10;;
6614;SDS011;3343;42.896;23.912;2023-05-09T11:50:11;1.07;;;1.03;;
6614;SDS011;3343;42.896;23.912;2023-05-09T11:52:39;1.33;;;1.23;;
6614;SDS011;3343;42.896;23.912;2023-05-09T11:55:08;2.53;;;1.80;;
6614;SDS011;3343;42.896;23.912;2023-05-09T11:57:38;1.80;;;1.40;;
6614;SDS011;3343;42.896;23.912;2023-05-09T12:00:06;1.90;;;1.53;;
6614;SDS011;3343;42.896;23.912;2023-05-09T12:02:34;1.63;;;1.53;;
6614;SDS011;3343;42.896;23.912;2023-05-09T12:05:10;2.90;;;1.80;;
6614;SDS011;3343;42.896;23.912;2023-05-09T12:07:37;2.10;;;1.83;;
6614;SDS011;3343;42.896;23.912;2023-05-09T12:10:06;2.50;;;1.97;;
6614;SDS011;3343;42.896;23.912;2023-05-09T12:12:34;1.83;;;1.43;;
6614;SDS011;3343;42.896;23.912;2023-05-09T12:15:01;2.33;;;2.07;;
6614;SDS011;3343;42.896;23.912;2023-05-09T12:17:29;2.00;;;1.80;;
6614;SDS011;3343;42.896;23.912;2023-05-09T12:19:57;2.47;;;1.53;;
6614;SDS011;3343;42.896;23.912;2023-05-09T12:22:26;2.63;;;2.00;;
6614;SDS011;3343;42.896;23.912;2023-05-09T12:24:54;2.10;;;1.90;;
6614;SDS011;3343;42.896;23.912;2023-05-09T12:27:21;2.60;;;1.70;;
6614;SDS011;3343;42.896;23.912;2023-05-09T12:29:50;3.10;;;2.00;;
6614;SDS011;3343;42.896;23.912;2023-05-09T12:32:17;1.70;;;1.60;;
6614;SDS011;3343;42.896;23.912;2023-05-09T12:34:45;3.90;;;1.60;;
6614;SDS011;3343;42.896;23.912;2023-05-09T12:37:13;1.50;;;1.40;;
6614;SDS011;3343;42.896;23.912;2023-05-09T12:39:42;2.83;;;2.10;;
6614;SDS011;3343;42.896;23.912;2023-05-09T12:42:12;1.90;;;1.70;;
6614;SDS011;3343;42.896;23.912;2023-05-09T12:44:39;3.80;;;1.97;;
6614;SDS011;3343;42.896;23.912;2023-05-09T12:47:13;2.27;;;1.50;;
6614;SDS011;3343;42.896;23.912;2023-05-09T12:49:40;2.27;;;1.53;;
6614;SDS011;3343;42.896;23.912;2023-05-09T12:52:15;2.00;;;1.50;;
6614;SDS011;3343;42.896;23.912;2023-05-09T12:54:45;1.53;;;1.43;;
6614;SDS011;3343;42.896;23.912;2023-05-09T12:57:22;1.50;;;1.37;;
6614;SDS011;3343;42.896;23.912;2023-05-09T12:59:56;1.87;;;1.50;;
6614;SDS011;3343;42.896;23.912;2023-05-09T13:02:24;1.77;;;1.50;;
6614;SDS011;3343;42.896;23.912;2023-05-09T13:05:03;1.60;;;1.50;;
6614;SDS011;3343;42.896;23.912;2023-05-09T13:07:37;3.53;;;2.30;;
6614;SDS011;3343;42.896;23.912;2023-05-09T13:10:10;1.40;;;1.30;;
6614;SDS011;3343;42.896;23.912;2023-05-09T13:12:37;2.10;;;1.90;;
6614;SDS011;3343;42.896;23.912;2023-05-09T13:15:05;2.57;;;1.97;;
6614;SDS011;3343;42.896;23.912;2023-05-09T13:17:33;3.53;;;2.20;;
6614;SDS011;3343;42.896;23.912;2023-05-09T13:20:00;3.53;;;1.73;;
6614;SDS011;3343;42.896;23.912;2023-05-09T13:22:28;3.13;;;1.70;;
6614;SDS011;3343;42.896;23.912;2023-05-09T13:24:55;1.97;;;1.30;;
6614;SDS011;3343;42.896;23.912;2023-05-09T13:27:23;2.20;;;1.40;;
6614;SDS011;3343;42.896;23.912;2023-05-09T13:29:52;1.30;;;1.20;;
6614;SDS011;3343;42.896;23.912;2023-05-09T13:32:19;1.83;;;1.20;;
6614;SDS011;3343;42.896;23.912;2023-05-09T13:34:45;2.17;;;1.90;;
6614;SDS011;3343;42.896;23.912;2023-05-09T13:37:12;2.00;;;1.80;;
6614;SDS011;3343;42.896;23.912;2023-05-09T13:39:39;3.83;;;2.53;;
6614;SDS011;3343;42.896;23.912;2023-05-09T13:42:06;2.80;;;2.13;;
6614;SDS011;3343;42.896;23.912;2023-05-09T13:44:34;3.50;;;2.30;;
6614;SDS011;3343;42.896;23.912;2023-05-09T13:47:01;2.47;;;1.70;;
6614;SDS011;3343;42.896;23.912;2023-05-09T13:49:28;1.43;;;1.33;;
6614;SDS011;3343;42.896;23.912;2023-05-09T13:51:55;1.80;;;1.23;;
6614;SDS011;3343;42.896;23.912;2023-05-09T13:54:21;1.40;;;1.30;;
6614;SDS011;3343;42.896;23.912;2023-05-09T13:56:48;1.60;;;1.50;;
6614;SDS011;3343;42.896;23.912;2023-05-09T13:59:16;1.70;;;1.47;;
6614;SDS011;3343;42.896;23.912;2023-05-09T14:01:44;1.33;;;1.23;;
6614;SDS011;3343;42.896;23.912;2023-05-09T14:04:11;2.00;;;1.30;;
6614;SDS011;3343;42.896;23.912;2023-05-09T14:06:37;1.20;;;1.10;;
6614;SDS011;3343;42.896;23.912;2023-05-09T14:09:04;0.90;;;0.90;;
6614;SDS011;3343;42.896;23.912;2023-05-09T14:11:33;1.53;;;1.07;;
6614;SDS011;3343;42.896;23.912;2023-05-09T14:14:00;1.17;;;1.07;;
6614;SDS011;3343;42.896;23.912;2023-05-09T14:16:27;2.40;;;1.10;;
6614;SDS011;3343;42.896;23.912;2023-05-09T14:18:55;2.33;;;1.10;;
6614;SDS011;3343;42.896;23.912;2023-05-09T14:21:22;1.30;;;1.20;;
6614;SDS011;3343;42.896;23.912;2023-05-09T14:23:48;1.27;;;1.17;;
6614;SDS011;3343;42.896;23.912;2023-05-09T14:26:15;0.90;;;0.90;;
6614;SDS011;3343;42.896;23.912;2023-05-09T14:28:43;1.40;;;1.23;;
6614;SDS011;3343;42.896;23.912;2023-05-09T14:31:10;1.50;;;1.40;;
6614;SDS011;3343;42.896;23.912;2023-05-09T14:33:37;1.40;;;1.30;;
6614;SDS011;3343;42.896;23.912;2023-05-09T14:36:06;1.47;;;1.30;;
6614;SDS011;3343;42.896;23.912;2023-05-09T14:38:32;1.40;;;1.20;;
6614;SDS011;3343;42.896;23.912;2023-05-09T14:41:01;1.20;;;1.10;;
6614;SDS011;3343;42.896;23.912;2023-05-09T14:43:28;1.33;;;1.13;;
6614;SDS011;3343;42.896;23.912;2023-05-09T14:45:55;1.57;;;1.20;;
6614;SDS011;3343;42.896;23.912;2023-05-09T14:48:22;1.67;;;1.20;;
6614;SDS011;3343;42.896;23.912;2023-05-09T14:50:49;2.00;;;1.20;;
6614;SDS011;3343;42.896;23.912;2023-05-09T14:53:20;1.13;;;1.03;;
6614;SDS011;3343;42.896;23.912;2023-05-09T14:55:47;4.20;;;2.40;;
6614;SDS011;3343;42.896;23.912;2023-05-09T14:58:15;1.90;;;1.50;;
6614;SDS011;3343;42.896;23.912;2023-05-09T15:00:42;2.60;;;2.13;;
6614;SDS011;3343;42.896;23.912;2023-05-09T15:03:09;2.33;;;1.67;;
6614;SDS011;3343;42.896;23.912;2023-05-09T15:05:36;2.23;;;1.80;;
6614;SDS011;3343;42.896;23.912;2023-05-09T15:08:04;2.17;;;1.90;;
6614;SDS011;3343;42.896;23.912;2023-05-09T15:10:32;7.50;;;1.93;;